Time;durP1;ratioP1;P1;durP2;ratioP2;P2;SDS_P1;SDS_P2;PMS_P1;PMS_P2;Temp;Humidity;BMP_temperature;BMP_pressure;BME280_temperature;BME280_humidity;BME280_pressure;Samples;Min_cycle;Max_cycle;Signal;HPM_P1;HPM_P2
2024/01/23 00:01:33;;;;;;;25.55;3.33;;;;;;;-146.27;77.38;42424.91;5071712;28;20028;-73
2024/01/23 00:04:00;;;;;;;29.05;4.70;;;;;;;-146.27;77.03;42436.84;5071992;28;20518;-73
2024/01/23 00:06:25;;;;;;;23.90;3.13;;;;;;;-146.27;77.43;42488.56;5071521;28;20033;-73
2024/01/23 00:08:52;;;;;;;39.65;4.05;;;;;;;-146.27;77.05;42520.38;5068636;28;20039;-73
2024/01/23 00:11:18;;;;;;;30.95;3.47;;;;;;;-146.27;77.04;42490.53;5072083;28;20033;-72
2024/01/23 00:13:45;;;;;;;23.77;2.80;;;;;;;-146.27;76.26;42464.69;5070503;28;20158;-73
2024/01/23 00:16:11;;;;;;;25.83;3.60;;;;;;;-146.27;75.49;42572.09;5072207;28;20091;-72
2024/01/23 00:18:36;;;;;;;26.58;3.95;;;;;;;-146.27;74.96;42580.03;5070006;28;20025;-73
2024/01/23 00:21:02;;;;;;;22.55;3.28;;;;;;;-146.27;74.11;42544.25;5071284;28;20027;-73
2024/01/23 00:23:28;;;;;;;19.52;3.15;;;;;;;-146.27;72.58;42711.31;5070670;28;20424;-74
2024/01/23 00:25:55;;;;;;;12.48;2.33;;;;;;;-146.27;71.29;42788.88;5072004;28;20056;-73
2024/01/23 00:28:20;;;;;;;25.83;3.17;;;;;;;-146.27;70.68;42838.59;5070789;28;20052;-73
2024/01/23 00:30:45;;;;;;;17.00;2.78;;;;;;;-146.27;69.99;42904.22;5067571;28;20056;-73
2024/01/23 00:33:10;;;;;;;24.08;3.50;;;;;;;-146.27;69.27;42922.13;5068158;28;20032;-73
2024/01/23 00:35:36;;;;;;;16.65;2.10;;;;;;;-146.27;69.10;43001.69;5067122;28;20036;-73
2024/01/23 00:38:01;;;;;;;19.52;2.85;;;;;;;-146.27;68.54;43041.47;5068647;28;20032;-73
2024/01/23 00:40:27;;;;;;;20.05;2.85;;;;;;;-146.27;68.62;43065.34;5069349;28;20039;-73
2024/01/23 00:42:52;;;;;;;18.75;2.85;;;;;;;-146.27;68.38;43099.16;5071698;28;20076;-73
2024/01/23 00:45:17;;;;;;;14.75;2.53;;;;;;;-146.27;68.96;43140.91;5070996;28;20028;-73
2024/01/23 00:47:43;;;;;;;26.70;3.63;;;;;;;-146.27;69.49;43093.19;5071537;28;20036;-72
2024/01/23 00:50:08;;;;;;;22.73;2.70;;;;;;;-146.27;69.65;43093.19;5071166;28;20054;-72
2024/01/23 00:52:33;;;;;;;17.90;3.67;;;;;;;-146.27;70.19;43101.13;5070775;28;20028;-73
2024/01/23 00:55:02;;;;;;;17.65;3.13;;;;;;;-146.27;69.54;43101.13;5071697;28;20033;-73
2024/01/23 00:57:28;;;;;;;26.70;3.30;;;;;;;-146.27;69.87;43134.94;5069728;28;20575;-74
2024/01/23 00:59:53;;;;;;;23.77;3.00;;;;;;;-146.27;70.07;43041.47;5070454;28;20112;-73
2024/01/23 01:02:19;;;;;;;16.90;2.65;;;;;;;-146.27;70.65;43105.13;5070978;28;20419;-73
2024/01/23 01:04:46;;;;;;;28.13;4.53;;;;;;;-146.27;71.42;43089.19;5070372;28;20032;-73
2024/01/23 01:07:14;;;;;;;19.02;2.75;;;;;;;-146.27;71.42;43065.34;5068446;28;20567;-73
2024/01/23 01:09:39;;;;;;;22.95;3.67;;;;;;;-146.27;71.63;43041.47;5070368;28;20128;-72
2024/01/23 01:12:06;;;;;;;10.13;2.50;;;;;;;-146.27;71.73;43053.41;5070539;28;20457;-72
2024/01/23 01:14:33;;;;;;;21.80;3.17;;;;;;;-146.27;72.37;43045.44;5068956;28;20081;-72
2024/01/23 01:16:59;;;;;;;22.65;3.05;;;;;;;-146.27;72.46;43025.56;5069716;28;20064;-73
2024/01/23 01:19:24;;;;;;;20.77;2.70;;;;;;;-146.27;73.07;43017.59;5069836;28;20534;-72
2024/01/23 01:21:49;;;;;;;22.40;2.47;;;;;;;-146.27;72.68;43011.63;5069526;28;20078;-73
2024/01/23 01:24:15;;;;;;;16.30;3.40;;;;;;;-146.27;72.47;42981.78;5070045;28;20028;-72
2024/01/23 01:26:40;;;;;;;20.92;3.53;;;;;;;-146.27;72.44;43021.56;5069819;28;20075;-74
2024/01/23 01:29:06;;;;;;;27.33;3.75;;;;;;;-146.27;72.79;43001.69;5070093;28;20112;-73
2024/01/23 01:31:32;;;;;;;16.85;2.80;;;;;;;-146.27;72.95;43001.69;5069243;28;20032;-74
2024/01/23 01:33:57;;;;;;;29.92;3.75;;;;;;;-146.27;72.82;42997.72;5067843;28;20031;-72
2024/01/23 01:36:23;;;;;;;21.85;3.58;;;;;;;-146.27;73.91;42983.78;5068190;28;20418;-73
2024/01/23 01:38:48;;;;;;;26.05;3.65;;;;;;;-146.27;74.32;42955.94;5068173;28;20107;-73
2024/01/23 01:41:14;;;;;;;26.08;3.13;;;;;;;-146.27;75.13;42973.84;5071144;28;20020;-73
2024/01/23 01:43:40;;;;;;;21.50;3.92;;;;;;;-146.27;74.67;42944.00;5070755;28;20493;-73
2024/01/23 01:46:20;;;;;;;22.45;3.03;;;;;;;-146.27;75.27;42924.13;5068584;28;20031;-74
2024/01/23 01:48:47;;;;;;;29.40;2.72;;;;;;;-146.27;74.91;42874.38;5070206;28;20415;-73
2024/01/23 01:51:14;;;;;;;21.85;3.70;;;;;;;-146.27;75.06;42874.38;5070445;28;20506;-73
2024/01/23 01:53:40;;;;;;;20.88;2.50;;;;;;;-146.27;75.13;42912.19;5069130;28;20036;-73
2024/01/23 01:56:07;;;;;;;18.42;3.80;;;;;;;-146.27;75.21;42918.16;5069463;28;20508;-73
2024/01/23 01:58:33;;;;;;;19.60;3.15;;;;;;;-146.27;75.45;42916.16;5068835;28;20100;-74
2024/01/23 02:01:02;;;;;;;25.15;3.72;;;;;;;-146.27;75.61;42920.13;5068171;28;20093;-73
2024/01/23 02:03:29;;;;;;;26.10;3.55;;;;;;;-146.27;74.94;42912.19;5069401;28;20105;-73
2024/01/23 02:05:56;;;;;;;22.20;3.33;;;;;;;-146.27;75.96;42946.00;5069389;28;20242;-73
2024/01/23 02:08:22;;;;;;;25.30;3.17;;;;;;;-146.27;75.63;42918.16;5069760;28;20024;-73
2024/01/23 02:10:47;;;;;;;25.02;3.42;;;;;;;-146.27;75.58;42946.00;5068981;28;20047;-73
2024/01/23 02:13:12;;;;;;;28.40;3.35;;;;;;;-146.27;75.65;42944.00;5069128;28;20021;-74
2024/01/23 02:15:38;;;;;;;28.90;2.88;;;;;;;-146.27;74.99;42944.00;5069394;28;20120;-73
2024/01/23 02:18:03;;;;;;;12.55;2.47;;;;;;;-146.27;75.61;42926.09;5067917;28;20096;-73
2024/01/23 02:20:29;;;;;;;17.42;3.10;;;;;;;-146.27;75.46;42910.19;5066592;28;20024;-73
2024/01/23 02:22:54;;;;;;;33.67;3.97;;;;;;;-146.27;74.38;42894.28;5069741;28;20046;-73
2024/01/23 02:25:20;;;;;;;24.10;3.30;;;;;;;-146.27;75.30;42973.84;5068920;28;20059;-72
2024/01/23 02:27:45;;;;;;;22.63;3.33;;;;;;;-146.27;74.91;42934.06;5070165;28;20581;-73
2024/01/23 02:30:11;;;;;;;18.42;2.42;;;;;;;-146.27;75.20;42955.94;5069801;28;20060;-73
2024/01/23 02:32:36;;;;;;;19.92;3.67;;;;;;;-146.27;75.43;42969.84;5068596;28;20028;-73
2024/01/23 02:35:02;;;;;;;20.77;2.70;;;;;;;-146.27;74.76;42961.91;5068727;28;20687;-73
2024/01/23 02:37:27;;;;;;;20.27;4.57;;;;;;;-146.27;74.77;42973.84;5069749;28;20025;-72
2024/01/23 02:39:53;;;;;;;21.55;4.10;;;;;;;-146.27;74.35;43053.41;5070401;28;20031;-74
2024/01/23 02:42:18;;;;;;;23.63;3.10;;;;;;;-146.27;74.87;43045.44;5067222;28;20028;-72
2024/01/23 02:44:45;;;;;;;18.13;2.50;;;;;;;-146.27;73.98;43019.59;5068396;28;20472;-73
2024/01/23 02:47:14;;;;;;;21.80;3.67;;;;;;;-146.27;74.16;43035.50;5067580;28;20037;-73
2024/01/23 02:49:39;;;;;;;16.50;2.92;;;;;;;-146.27;73.93;43053.41;5067950;28;20053;-73
2024/01/23 02:52:05;;;;;;;25.25;3.00;;;;;;;-146.27;74.12;43033.50;5066224;28;20016;-73
2024/01/23 02:54:33;;;;;;;28.52;3.67;;;;;;;-146.27;74.15;43025.56;5069411;28;20017;-73
2024/01/23 02:56:59;;;;;;;14.18;3.22;;;;;;;-146.27;74.06;43049.41;5068090;28;20115;-73
2024/01/23 02:59:25;;;;;;;18.15;2.85;;;;;;;-146.27;74.25;43029.53;5069195;28;20579;-73
2024/01/23 03:01:50;;;;;;;17.65;3.20;;;;;;;-146.27;74.14;43021.56;5068478;28;20484;-74
2024/01/23 03:04:15;;;;;;;22.38;4.95;;;;;;;-146.27;74.47;43043.44;5068827;28;20051;-73
2024/01/23 03:06:41;;;;;;;19.02;2.80;;;;;;;-146.27;74.73;43045.44;5066471;28;20127;-73
2024/01/23 03:09:06;;;;;;;17.80;3.22;;;;;;;-146.27;74.71;43101.13;5067399;28;20126;-73
2024/01/23 03:11:32;;;;;;;24.23;3.70;;;;;;;-146.27;74.56;43025.56;5069221;28;20438;-73
2024/01/23 03:13:58;;;;;;;16.75;2.38;;;;;;;-146.27;74.82;43063.34;5072894;28;20039;-73
2024/01/23 03:16:23;;;;;;;12.13;2.30;;;;;;;-146.27;75.12;43089.19;5070456;28;20504;-73
2024/01/23 03:18:48;;;;;;;18.77;3.13;;;;;;;-146.27;75.04;43089.19;5071083;28;20417;-73
2024/01/23 03:21:14;;;;;;;25.17;3.38;;;;;;;-146.27;74.06;43039.47;5072683;28;20092;-73
2024/01/23 03:23:39;;;;;;;19.65;2.92;;;;;;;-146.27;74.55;43093.19;5072316;28;20651;-73
2024/01/23 03:26:05;;;;;;;21.98;3.13;;;;;;;-146.27;74.81;43045.44;5072251;28;20044;-73
2024/01/23 03:28:30;;;;;;;32.03;3.22;;;;;;;-146.27;74.63;43015.59;5071120;28;20039;-73
2024/01/23 03:30:55;;;;;;;25.30;3.70;;;;;;;-146.27;74.45;43081.25;5072548;28;20027;-74
2024/01/23 03:33:21;;;;;;;25.52;3.65;;;;;;;-146.27;74.08;43085.22;5072710;28;20032;-74
2024/01/23 03:35:46;;;;;;;24.55;2.72;;;;;;;-146.27;74.56;43128.97;5071830;28;20032;-74
2024/01/23 03:38:13;;;;;;;26.27;2.78;;;;;;;-146.27;74.44;43113.06;5071294;28;20067;-73
2024/01/23 03:40:39;;;;;;;25.88;3.67;;;;;;;-146.27;74.58;43119.03;5073651;28;20032;-73
2024/01/23 03:43:04;;;;;;;15.15;3.10;;;;;;;-146.27;74.47;43166.78;5072012;28;20028;-73
2024/01/23 03:45:30;;;;;;;20.75;2.85;;;;;;;-146.27;73.58;43107.09;5070357;28;20388;-72
2024/01/23 03:47:55;;;;;;;27.65;3.15;;;;;;;-146.27;73.86;43105.13;5072230;28;20496;-73
2024/01/23 03:50:20;;;;;;;20.52;2.85;;;;;;;-146.27;73.38;43146.88;5072483;28;20031;-73
2024/01/23 03:52:46;;;;;;;18.70;3.67;;;;;;;-146.27;73.75;43093.19;5070537;28;20032;-73
2024/01/23 03:55:11;;;;;;;16.10;2.38;;;;;;;-146.27;73.69;43125.00;5071220;28;20123;-73
2024/01/23 03:57:37;;;;;;;15.75;2.65;;;;;;;-146.27;73.19;43125.00;5073228;28;20446;-73
2024/01/23 04:00:04;;;;;;;28.42;3.97;;;;;;;-146.27;72.99;43128.97;5072536;28;20030;-73
2024/01/23 04:02:31;;;;;;;21.83;3.15;;;;;;;-146.27;73.53;43188.66;5069707;28;20028;-73
2024/01/23 04:04:57;;;;;;;23.60;4.00;;;;;;;-146.27;73.67;43144.91;5069761;28;20485;-73
2024/01/23 04:07:23;;;;;;;21.88;2.75;;;;;;;-146.27;73.07;43089.19;5071282;28;20035;-73
2024/01/23 04:09:49;;;;;;;24.52;2.78;;;;;;;-146.27;73.77;43144.91;5071060;28;20104;-73
2024/01/23 04:12:14;;;;;;;28.85;4.15;;;;;;;-146.27;73.92;43115.06;5071618;28;20021;-72
2024/01/23 04:14:40;;;;;;;17.65;2.58;;;;;;;-146.27;74.25;43132.97;5071070;28;20473;-74
2024/01/23 04:17:06;;;;;;;20.85;2.90;;;;;;;-146.27;74.44;43138.94;5071052;28;20051;-73
2024/01/23 04:19:31;;;;;;;21.13;3.42;;;;;;;-146.27;74.19;43117.06;5070408;28;20104;-74
2024/01/23 04:21:57;;;;;;;21.52;3.00;;;;;;;-146.27;73.92;43081.25;5071732;28;20040;-73
2024/01/23 04:24:22;;;;;;;24.90;3.28;;;;;;;-146.27;73.89;43091.19;5070600;28;20092;-73
2024/01/23 04:26:48;;;;;;;21.77;3.08;;;;;;;-146.27;74.50;43081.25;5070396;28;20155;-73
2024/01/23 04:29:13;;;;;;;25.48;3.28;;;;;;;-146.27;74.92;43113.06;5072386;28;20119;-73
2024/01/23 04:31:39;;;;;;;31.48;4.78;;;;;;;-146.27;75.83;43111.09;5071522;28;20520;-73
2024/01/23 04:34:05;;;;;;;21.42;2.80;;;;;;;-146.27;75.05;43085.22;5068923;28;20021;-73
2024/01/23 04:36:30;;;;;;;19.55;2.55;;;;;;;-146.27;75.84;43113.06;5069847;28;20190;-73
2024/01/23 04:38:55;;;;;;;19.08;2.90;;;;;;;-146.27;76.27;43105.13;5069653;28;20021;-73
2024/01/23 04:41:22;;;;;;;21.83;3.15;;;;;;;-146.27;75.57;43089.19;5070934;28;20135;-73
2024/01/23 04:43:48;;;;;;;18.50;2.67;;;;;;;-146.27;76.26;43089.19;5071346;28;20028;-74
2024/01/23 04:46:13;;;;;;;17.70;2.65;;;;;;;-146.27;75.34;43057.38;5071461;28;20020;-73
2024/01/23 04:48:39;;;;;;;21.17;3.15;;;;;;;-146.27;74.98;43049.41;5070289;28;20032;-73
2024/01/23 04:51:04;;;;;;;20.67;2.85;;;;;;;-146.27;75.71;43109.09;5071201;28;20024;-74
2024/01/23 04:53:32;;;;;;;26.50;2.88;;;;;;;-146.27;75.33;43045.44;5071219;28;20396;-74
2024/01/23 04:55:57;;;;;;;19.85;3.05;;;;;;;-146.27;75.63;43127.00;5070339;28;20061;-74
2024/01/23 04:58:23;;;;;;;13.77;2.42;;;;;;;-146.27;75.18;43142.91;5070881;28;20107;-72
2024/01/23 05:00:48;;;;;;;28.85;3.30;;;;;;;-146.27;75.19;43057.38;5069642;28;20413;-73
2024/01/23 05:03:14;;;;;;;22.88;3.67;;;;;;;-146.27;75.45;43097.16;5069579;28;20052;-74
2024/01/23 05:05:39;;;;;;;19.40;2.47;;;;;;;-146.27;75.79;43125.00;5069409;28;20655;-73
2024/01/23 05:08:05;;;;;;;25.40;3.40;;;;;;;-146.27;75.67;43089.19;5069644;28;20039;-73
2024/01/23 05:10:30;;;;;;;22.15;3.05;;;;;;;-146.27;74.85;43077.28;5070146;28;20028;-73
2024/01/23 05:12:55;;;;;;;22.58;2.65;;;;;;;-146.27;75.37;43121.03;5071417;28;20082;-73
2024/01/23 05:15:21;;;;;;;17.17;3.40;;;;;;;-146.27;74.91;43053.41;5070318;28;20021;-73
2024/01/23 05:17:46;;;;;;;27.23;3.92;;;;;;;-146.27;74.34;43061.34;5068716;28;20033;-73
2024/01/23 05:20:11;;;;;;;26.10;3.17;;;;;;;-146.27;75.43;43073.28;5068053;28;20021;-73
2024/01/23 05:22:37;;;;;;;26.35;4.18;;;;;;;-146.27;75.97;43105.13;5070821;28;20126;-73
2024/01/23 05:25:03;;;;;;;21.13;3.10;;;;;;;-146.27;75.83;43083.22;5070146;28;20508;-74
2024/01/23 05:27:28;;;;;;;22.92;4.63;;;;;;;-146.27;76.04;43065.34;5070230;28;20074;-72
2024/01/23 05:29:54;;;;;;;21.83;2.90;;;;;;;-146.27;76.00;43077.28;5069027;28;20033;-74
2024/01/23 05:32:19;;;;;;;18.98;3.60;;;;;;;-146.27;75.43;43055.38;5069977;28;20384;-73
2024/01/23 05:34:44;;;;;;;16.73;2.22;;;;;;;-146.27;75.94;43109.09;5069527;28;20551;-73
2024/01/23 05:37:13;;;;;;;17.02;3.35;;;;;;;-146.27;75.67;43077.28;5069992;28;20037;-74
2024/01/23 05:39:39;;;;;;;20.17;2.83;;;;;;;-146.27;76.29;43109.09;5069753;28;20384;-73
2024/01/23 05:42:05;;;;;;;24.42;3.30;;;;;;;-146.27;75.79;43057.38;5069916;28;20020;-75
2024/01/23 05:44:32;;;;;;;30.75;3.65;;;;;;;-146.27;75.78;43043.44;5069090;28;20020;-73
2024/01/23 05:46:57;;;;;;;18.02;2.90;;;;;;;-146.27;76.41;43057.38;5069160;28;20027;-73
2024/01/23 05:49:22;;;;;;;22.55;2.90;;;;;;;-146.27;76.30;43053.41;5070501;28;20025;-74
2024/01/23 05:51:48;;;;;;;21.85;3.63;;;;;;;-146.27;76.25;43053.41;5069198;28;20131;-73
2024/01/23 05:54:13;;;;;;;26.35;3.25;;;;;;;-146.27;76.00;43025.56;5068303;28;20491;-73
2024/01/23 05:56:38;;;;;;;20.30;2.75;;;;;;;-146.27;76.14;43037.50;5069623;28;20079;-73
2024/01/23 05:59:04;;;;;;;33.35;3.50;;;;;;;-146.27;75.07;43033.50;5069986;28;20032;-73
2024/01/23 06:01:33;;;;;;;27.70;3.25;;;;;;;-146.27;75.42;43045.44;5067882;28;20028;-74
2024/01/23 06:03:59;;;;;;;23.15;3.05;;;;;;;-146.27;75.40;43049.41;5069368;28;20568;-73
2024/01/23 06:06:24;;;;;;;18.73;2.80;;;;;;;-146.27;75.88;43061.34;5063491;28;20035;-73
2024/01/23 06:08:50;;;;;;;26.45;2.95;;;;;;;-146.27;76.22;43063.34;5066950;28;20732;-73
2024/01/23 06:11:16;;;;;;;19.33;2.80;;;;;;;-146.27;75.69;43025.56;5069640;28;20028;-74
2024/01/23 06:13:41;;;;;;;25.67;3.15;;;;;;;-146.27;75.66;43021.56;5064085;28;20029;-73
2024/01/23 06:16:07;;;;;;;19.45;2.95;;;;;;;-146.27;76.25;43097.16;5068760;28;20044;-73
2024/01/23 06:18:32;;;;;;;24.33;2.97;;;;;;;-146.27;76.38;43033.50;5069507;28;20035;-73
2024/01/23 06:21:00;;;;;;;24.25;3.55;;;;;;;-146.27;75.78;43081.25;5068477;28;20470;-72
2024/01/23 06:23:25;;;;;;;24.25;2.97;;;;;;;-146.27;76.10;43113.06;5069140;28;20032;-72
2024/01/23 06:25:51;;;;;;;28.98;3.17;;;;;;;-146.27;76.00;43069.31;5069811;28;20127;-74
2024/01/23 06:28:16;;;;;;;22.02;4.78;;;;;;;-146.27;76.50;43029.53;5067782;28;20039;-72
2024/01/23 06:30:42;;;;;;;24.75;3.42;;;;;;;-146.27;76.86;43061.34;5069097;28;20489;-73
2024/01/23 06:33:08;;;;;;;26.25;3.97;;;;;;;-146.27;76.60;43119.03;5068610;28;20028;-73
2024/01/23 06:35:33;;;;;;;27.10;2.92;;;;;;;-146.27;77.15;43083.22;5067882;28;20467;-73
2024/01/23 06:37:58;;;;;;;28.23;3.83;;;;;;;-146.27;77.07;43069.31;5064290;28;20064;-73
2024/01/23 06:40:24;;;;;;;23.35;3.53;;;;;;;-146.27;77.09;43073.28;5069260;28;20434;-73
2024/01/23 06:42:49;;;;;;;15.32;3.00;;;;;;;-146.27;77.12;43039.47;5069864;28;20024;-73
2024/01/23 06:45:14;;;;;;;32.88;3.47;;;;;;;-146.27;77.47;43071.31;5066066;28;20048;-73
2024/01/23 06:47:40;;;;;;;30.40;5.03;;;;;;;-146.27;77.18;43043.44;5062056;28;20389;-73
2024/01/23 06:50:06;;;;;;;26.23;3.42;;;;;;;-146.27;77.13;42997.72;5059648;28;20408;-74
2024/01/23 06:52:32;;;;;;;30.15;4.60;;;;;;;-146.27;77.65;43007.66;5064475;28;20094;-73
2024/01/23 06:54:58;;;;;;;30.95;3.45;;;;;;;-146.27;77.44;42997.72;5060272;28;20031;-73
2024/01/23 06:57:24;;;;;;;24.73;2.75;;;;;;;-146.27;77.12;42973.84;5069934;28;20107;-73
2024/01/23 06:59:49;;;;;;;25.85;3.80;;;;;;;-146.27;77.64;43023.56;5070621;28;20055;-73
2024/01/23 07:02:15;;;;;;;31.75;3.22;;;;;;;-146.27;77.74;42997.72;5069260;28;20414;-74
2024/01/23 07:04:48;;;;;;;18.58;3.03;;;;;;;-146.27;77.48;42989.75;5069728;28;20034;-74
2024/01/23 07:07:14;;;;;;;27.90;3.88;;;;;;;-146.27;77.36;42999.69;5064734;28;20033;-74
2024/01/23 07:09:39;;;;;;;21.25;3.53;;;;;;;-146.27;77.47;43011.63;5069128;28;20094;-73
2024/01/23 07:12:05;;;;;;;27.10;2.63;;;;;;;-146.27;77.80;43023.56;5070104;28;20370;-74
2024/01/23 07:14:30;;;;;;;38.30;4.63;;;;;;;-146.27;77.73;43017.59;5069826;28;20024;-73
2024/01/23 07:16:56;;;;;;;27.63;3.83;;;;;;;-146.27;77.68;43045.44;5067383;28;20035;-73
2024/01/23 07:19:22;;;;;;;25.70;3.70;;;;;;;-146.27;77.30;42987.75;5065983;28;20593;-74
2024/01/23 07:21:48;;;;;;;27.92;4.07;;;;;;;-146.27;77.47;43049.41;5061519;28;20017;-73
2024/01/23 07:24:13;;;;;;;19.33;3.20;;;;;;;-146.27;76.98;43025.56;5061547;28;20515;-74
2024/01/23 07:26:39;;;;;;;26.58;4.00;;;;;;;-146.27;76.79;43031.53;5063014;28;20130;-75
2024/01/23 07:29:04;;;;;;;30.17;3.40;;;;;;;-146.27;77.61;43033.50;5068947;28;20499;-74
2024/01/23 07:31:30;;;;;;;16.92;2.88;;;;;;;-146.27;76.75;43069.31;5067838;28;20031;-74
2024/01/23 07:33:55;;;;;;;33.47;3.80;;;;;;;-146.27;76.97;43057.38;5066888;28;20032;-75
2024/01/23 07:36:20;;;;;;;32.08;3.70;;;;;;;-146.27;77.36;43041.47;5065807;28;20020;-74
2024/01/23 07:38:46;;;;;;;17.27;2.88;;;;;;;-146.27;77.59;43093.19;5069151;28;20125;-74
2024/01/23 07:41:11;;;;;;;36.65;3.80;;;;;;;-146.27;77.12;43111.09;5069856;28;20042;-74
2024/01/23 07:43:36;;;;;;;19.17;3.55;;;;;;;-146.27;77.39;43101.13;5068665;28;20027;-73
2024/01/23 07:46:02;;;;;;;19.88;2.92;;;;;;;-146.27;77.93;43148.88;5066793;28;20024;-74
2024/01/23 07:48:29;;;;;;;23.95;3.08;;;;;;;-146.27;77.58;43071.31;5066490;28;20024;-74
2024/01/23 07:50:54;;;;;;;32.38;4.00;;;;;;;-146.27;78.11;43148.88;5068847;28;20548;-74
2024/01/23 07:53:19;;;;;;;24.98;3.33;;;;;;;-146.27;78.11;43113.06;5069315;28;20021;-74
2024/01/23 07:55:45;;;;;;;31.60;3.80;;;;;;;-146.27;78.14;43140.91;5069512;28;20108;-74
2024/01/23 07:58:12;;;;;;;26.98;3.33;;;;;;;-146.27;78.23;43144.91;5069416;28;20089;-75
2024/01/23 08:00:38;;;;;;;25.63;3.20;;;;;;;-146.27;77.81;43144.91;5073213;28;20021;-75
2024/01/23 08:03:04;;;;;;;31.65;4.07;;;;;;;-146.27;77.78;43164.78;5071016;28;20491;-75
2024/01/23 08:05:30;;;;;;;26.73;4.88;;;;;;;-146.27;76.80;43216.50;5072353;28;20033;-74
2024/01/23 08:07:55;;;;;;;28.80;4.05;;;;;;;-146.27;77.87;43190.66;5070218;28;20058;-75
2024/01/23 08:10:21;;;;;;;26.52;3.53;;;;;;;-146.27;77.26;43260.25;5071410;28;20020;-75
2024/01/23 08:12:46;;;;;;;26.08;3.75;;;;;;;-146.27;77.80;43335.84;5064104;28;20028;-74
2024/01/23 08:15:12;;;;;;;22.33;3.55;;;;;;;-146.27;77.61;43351.75;5063750;28;20073;-75
2024/01/23 08:17:37;;;;;;;29.80;3.30;;;;;;;-146.27;77.56;43415.41;5065819;28;20065;-74
2024/01/23 08:20:03;;;;;;;22.42;3.85;;;;;;;-146.27;79.39;43391.56;5064104;28;20017;-75
2024/01/23 08:22:29;;;;;;;28.73;3.95;;;;;;;-146.27;78.71;43363.69;5058312;28;20437;-75
2024/01/23 08:24:54;;;;;;;24.52;3.80;;;;;;;-146.27;78.53;43419.41;5065660;28;20071;-74
2024/01/23 08:27:20;;;;;;;27.80;4.05;;;;;;;-146.27;78.37;43447.25;5061400;28;20068;-75
2024/01/23 08:29:45;;;;;;;24.00;4.47;;;;;;;-146.27;78.34;43453.22;5065082;28;20107;-74
2024/01/23 08:32:10;;;;;;;25.23;3.63;;;;;;;-146.27;78.03;43379.63;5061520;28;20020;-75
2024/01/23 08:34:36;;;;;;;30.00;3.95;;;;;;;-146.27;78.18;43391.56;5063666;28;20432;-75
2024/01/23 08:37:02;;;;;;;21.17;3.10;;;;;;;-146.27;78.00;43391.56;5067498;28;20646;-75
2024/01/23 08:39:27;;;;;;;25.83;4.38;;;;;;;-146.27;78.31;43435.31;5072737;28;20499;-75
2024/01/23 08:41:53;;;;;;;28.15;4.15;;;;;;;-146.27;77.86;43439.28;5072861;28;20396;-74
2024/01/23 08:44:21;;;;;;;25.52;3.58;;;;;;;-146.27;79.62;43506.94;5063517;28;20111;-75
2024/01/23 08:46:46;;;;;;;27.23;3.95;;;;;;;-146.27;78.58;43534.78;5064400;28;20017;-74
2024/01/23 08:49:11;;;;;;;31.30;4.70;;;;;;;-146.27;79.36;43510.91;5061140;28;20378;-74
2024/01/23 08:51:37;;;;;;;27.30;3.25;;;;;;;-146.27;80.04;43518.88;5061344;28;20062;-75
2024/01/23 08:54:03;;;;;;;25.63;3.67;;;;;;;-146.27;81.08;43489.03;5060591;28;20024;-74
2024/01/23 08:56:30;;;;;;;38.17;4.57;;;;;;;-146.27;81.73;43427.34;5061852;28;20527;-74
2024/01/23 08:58:55;;;;;;;30.67;4.30;;;;;;;-146.27;80.67;43399.50;5059934;28;20033;-74
2024/01/23 09:01:21;;;;;;;34.63;3.63;;;;;;;-146.27;81.75;43437.31;5065401;28;20025;-75
2024/01/23 09:03:46;;;;;;;31.25;4.78;;;;;;;-146.27;81.76;43407.47;5064849;28;20075;-75
2024/01/23 09:06:12;;;;;;;25.63;3.30;;;;;;;-146.27;81.89;43373.66;5061652;28;20036;-75
2024/01/23 09:08:37;;;;;;;34.58;3.92;;;;;;;-146.27;82.83;43395.53;5064059;28;20028;-74
2024/01/23 09:11:03;;;;;;;46.42;5.53;;;;;;;-146.27;82.33;43290.09;5056810;28;20031;-74
2024/01/23 09:13:32;;;;;;;26.52;3.88;;;;;;;-146.27;81.98;43288.13;5063585;28;20385;-74
2024/01/23 09:16:00;;;;;;;21.55;3.17;;;;;;;-146.27;81.85;43304.03;5063294;28;20024;-74
2024/01/23 09:18:28;;;;;;;23.38;4.05;;;;;;;-146.27;80.97;43304.03;5059469;28;20040;-74
2024/01/23 09:20:56;;;;;;;45.10;5.55;;;;;;;-146.27;80.86;43325.91;5063239;28;20016;-74
2024/01/23 09:23:21;;;;;;;26.80;4.15;;;;;;;-146.27;80.19;43315.97;5061947;28;20036;-74
2024/01/23 09:25:47;;;;;;;27.88;4.00;;;;;;;-146.27;80.41;43389.56;5060625;28;20028;-74
2024/01/23 09:28:12;;;;;;;22.08;3.22;;;;;;;-146.27;80.00;43387.56;5063299;28;20029;-75
2024/01/23 09:30:37;;;;;;;27.05;3.75;;;;;;;-146.27;80.24;43363.69;5064083;28;20127;-75
2024/01/23 09:33:03;;;;;;;22.85;3.70;;;;;;;-146.27;79.44;43371.66;5061512;28;20020;-74
2024/01/23 09:35:30;;;;;;;27.70;3.88;;;;;;;-146.27;79.44;43369.66;5063785;28;20476;-75
2024/01/23 09:37:57;;;;;;;20.52;3.33;;;;;;;-146.27;79.13;43347.78;5062535;28;20937;-75
2024/01/23 09:40:22;;;;;;;25.10;3.67;;;;;;;-146.27;77.75;43313.97;5060770;28;20033;-75
2024/01/23 09:42:48;;;;;;;33.30;4.78;;;;;;;-146.27;77.07;43375.63;5057547;28;20297;-75
2024/01/23 09:45:18;;;;;;;35.55;3.85;;;;;;;-146.27;78.21;43375.63;5058353;28;20024;-75
2024/01/23 09:47:47;;;;;;;29.10;3.53;;;;;;;-146.27;77.00;43377.63;5061002;28;20039;-74
2024/01/23 09:50:13;;;;;;;28.83;3.40;;;;;;;-146.27;76.63;43371.66;5064364;28;20023;-75
2024/01/23 09:52:42;;;;;;;18.75;3.67;;;;;;;-146.27;75.65;43347.78;5060763;28;20029;-75
2024/01/23 09:55:08;;;;;;;30.58;3.70;;;;;;;-146.27;74.96;43383.59;5058379;28;20393;-74
2024/01/23 09:57:33;;;;;;;33.03;3.53;;;;;;;-146.27;75.30;43415.41;5058936;28;20033;-75
2024/01/23 09:59:59;;;;;;;26.38;3.70;;;;;;;-146.27;76.64;43550.69;5060189;28;20028;-75
2024/01/23 10:02:25;;;;;;;18.25;3.15;;;;;;;-146.27;76.51;43465.16;5061889;28;20501;-74
2024/01/23 10:04:52;;;;;;;42.30;5.15;;;;;;;-146.27;75.83;43469.13;5059978;28;20016;-75
2024/01/23 10:07:17;;;;;;;25.63;4.18;;;;;;;-146.27;74.80;43421.38;5058864;28;20408;-75
2024/01/23 10:09:49;;;;;;;31.65;3.85;;;;;;;-146.27;74.22;43495.00;5060851;28;20020;-75
2024/01/23 10:12:17;;;;;;;36.78;4.47;;;;;;;-146.27;74.17;43355.75;5064140;28;20091;-75
2024/01/23 10:14:45;;;;;;;22.50;3.42;;;;;;;-146.27;73.36;43395.53;5062572;28;20040;-76
2024/01/23 10:17:10;;;;;;;23.58;3.65;;;;;;;-146.27;73.21;43471.13;5065784;28;20021;-75
2024/01/23 10:19:36;;;;;;;25.73;4.10;;;;;;;-146.27;73.28;43447.25;5065934;28;20022;-75
2024/01/23 10:22:03;;;;;;;25.27;3.40;;;;;;;-146.27;72.66;43391.56;5064075;28;20024;-75
2024/01/23 10:24:29;;;;;;;27.40;3.10;;;;;;;-146.27;72.19;43369.66;5068235;28;21290;-76
2024/01/23 10:26:54;;;;;;;28.92;4.13;;;;;;;-146.27;71.76;43327.91;5070155;28;20060;-74
2024/01/23 10:29:20;;;;;;;26.23;3.88;;;;;;;-146.27;71.78;43479.06;5066167;28;20040;-77
2024/01/23 10:31:46;;;;;;;21.98;2.92;;;;;;;-146.27;72.57;43455.22;5069897;28;20078;-75
2024/01/23 10:34:12;;;;;;;27.17;4.07;;;;;;;-146.27;72.90;43471.13;5069603;28;20029;-74
2024/01/23 10:36:41;;;;;;;21.13;3.58;;;;;;;-146.27;73.55;43612.34;5068631;28;20020;-74
2024/01/23 10:39:07;;;;;;;24.20;3.13;;;;;;;-146.27;73.53;43469.13;5065717;28;20245;-75
2024/01/23 10:41:34;;;;;;;26.40;4.40;;;;;;;-146.27;71.86;43493.00;5069485;28;20099;-75
2024/01/23 10:44:01;;;;;;;27.30;3.65;;;;;;;-146.27;71.08;43445.25;5069893;28;20158;-75
2024/01/23 10:46:28;;;;;;;27.27;3.10;;;;;;;-146.27;70.99;43391.56;5069621;28;20164;-75
2024/01/23 10:48:54;;;;;;;23.52;4.22;;;;;;;-146.27;72.36;43522.84;5067459;28;20039;-73
2024/01/23 10:51:20;;;;;;;25.08;3.40;;;;;;;-146.27;73.10;43554.66;5067574;28;20028;-74
2024/01/23 10:54:01;;;;;;;18.50;3.47;;;;;;;-146.27;72.40;43491.00;5064438;28;20118;-75
2024/01/23 10:56:35;;;;;;;27.02;4.00;;;;;;;-146.27;73.62;43570.59;5063714;28;20028;-74
2024/01/23 10:59:01;;;;;;;20.23;2.65;;;;;;;-146.27;73.02;43427.34;5050941;28;20053;-75
2024/01/23 11:01:38;;;;;;;27.60;3.75;;;;;;;-146.27;73.11;43532.78;5057654;28;20372;-76
2024/01/23 11:04:04;;;;;;;25.95;2.80;;;;;;;-146.27;73.93;43496.97;5058122;28;20024;-76